Time;durP1;ratioP1;P1;durP2;ratioP2;P2;SDS_P1;SDS_P2;PMS_P1;PMS_P2;Temp;Humidity;BMP_temperature;BMP_pressure;BME280_temperature;BME280_humidity;BME280_pressure;Samples;Min_cycle;Max_cycle;Signal;HPM_P1;HPM_P2
2021/11/29 00:02:22;;;;;;;23.70;16.07;;;;;;;11.56;75.55;98857.86;1812174;79;21558;-70
2021/11/29 00:04:49;;;;;;;26.77;16.95;;;;;;;11.59;75.48;98854.02;1812517;78;20964;-71
2021/11/29 00:07:17;;;;;;;27.48;17.40;;;;;;;11.61;75.45;98853.15;1812115;79;20963;-71
2021/11/29 00:09:45;;;;;;;24.18;16.82;;;;;;;11.64;75.46;98855.77;1812391;78;21555;-71
2021/11/29 00:12:14;;;;;;;26.60;17.23;;;;;;;11.69;75.43;98852.43;1812263;79;21554;-69
2021/11/29 00:14:41;;;;;;;24.70;16.93;;;;;;;11.72;75.39;98840.34;1812379;79;21827;-69
2021/11/29 00:17:10;;;;;;;24.15;16.12;;;;;;;11.77;75.31;98837.52;1812064;79;21744;-70
2021/11/29 00:19:36;;;;;;;24.87;16.97;;;;;;;11.77;75.20;98836.17;1812316;79;20992;-70
2021/11/29 00:22:05;;;;;;;24.07;16.80;;;;;;;11.80;75.17;98836.13;1812267;79;20975;-70
2021/11/29 00:24:31;;;;;;;25.97;16.32;;;;;;;11.80;75.10;98820.86;1812436;79;21120;-70
2021/11/29 00:27:00;;;;;;;23.00;15.67;;;;;;;11.81;75.06;98818.41;1811960;79;21023;-70
2021/11/29 00:29:26;;;;;;;21.53;15.87;;;;;;;11.80;74.94;98810.71;1812088;79;21413;-70
2021/11/29 00:34:21;;;;;;;24.13;16.17;;;;;;;11.73;74.93;98805.80;1812325;78;21220;-70
2021/11/29 00:36:50;;;;;;;19.63;14.07;;;;;;;11.70;75.00;98800.51;1812219;79;21348;-70
2021/11/29 00:39:17;;;;;;;22.02;15.50;;;;;;;11.71;75.05;98791.94;1812228;79;21724;-70
2021/11/29 00:41:44;;;;;;;24.70;16.20;;;;;;;11.69;75.08;98787.46;1811529;79;21043;-70
2021/11/29 00:44:12;;;;;;;22.67;15.70;;;;;;;11.70;75.11;98785.80;1812298;79;21217;-69
2021/11/29 00:46:40;;;;;;;22.07;15.85;;;;;;;11.71;75.16;98779.89;1811629;78;21394;-69
2021/11/29 00:49:07;;;;;;;23.32;15.70;;;;;;;11.71;75.16;98769.20;1812056;79;21514;-70
2021/11/29 00:51:35;;;;;;;21.27;14.73;;;;;;;11.75;75.18;98770.19;1809272;78;20992;-70
2021/11/29 00:54:03;;;;;;;24.03;15.97;;;;;;;11.77;75.17;98762.62;1812206;78;21173;-70
2021/11/29 00:56:31;;;;;;;20.62;13.88;;;;;;;11.75;75.14;98768.84;1811433;78;21209;-69
2021/11/29 00:58:58;;;;;;;22.27;15.73;;;;;;;11.77;75.23;98757.83;1812158;78;20947;-70
2021/11/29 01:01:24;;;;;;;20.70;13.57;;;;;;;11.77;75.24;98755.94;1812429;79;21722;-70
2021/11/29 01:03:51;;;;;;;20.90;14.93;;;;;;;11.79;75.30;98741.72;1810857;78;21307;-72
2021/11/29 01:06:19;;;;;;;24.20;16.03;;;;;;;11.79;75.31;98735.03;1812303;78;21748;-70
2021/11/29 01:08:45;;;;;;;22.37;15.37;;;;;;;11.79;75.40;98739.04;1812177;79;21353;-70
2021/11/29 01:11:12;;;;;;;20.57;13.67;;;;;;;11.77;75.44;98732.42;1812277;79;21090;-70
2021/11/29 01:13:39;;;;;;;20.72;14.43;;;;;;;11.78;75.53;98725.96;1811527;79;21105;-70
2021/11/29 01:16:06;;;;;;;19.07;13.73;;;;;;;11.80;75.55;98732.59;1812219;79;21506;-71
2021/11/29 01:18:33;;;;;;;20.57;13.45;;;;;;;11.79;75.57;98724.89;1811989;79;21223;-70
2021/11/29 01:21:00;;;;;;;19.50;13.40;;;;;;;11.76;75.63;98716.92;1811297;78;21428;-70
2021/11/29 01:23:27;;;;;;;19.63;13.77;;;;;;;11.76;75.66;98714.25;1812250;78;21262;-70
2021/11/29 01:25:54;;;;;;;19.80;13.60;;;;;;;11.76;75.71;98723.61;1811679;79;21730;-70
2021/11/29 01:28:22;;;;;;;20.00;14.03;;;;;;;11.79;75.75;98724.89;1812072;78;21268;-70
2021/11/29 01:30:49;;;;;;;18.50;12.93;;;;;;;11.83;75.76;98727.17;1812285;78;21265;-70
2021/11/29 01:33:18;;;;;;;20.47;14.10;;;;;;;11.88;75.76;98715.82;1811957;78;21171;-70
2021/11/29 01:35:45;;;;;;;18.70;13.37;;;;;;;11.91;75.76;98709.85;1812204;79;21373;-70
2021/11/29 01:38:11;;;;;;;19.03;13.20;;;;;;;11.95;75.69;98708.68;1812321;79;21278;-70
2021/11/29 01:40:38;;;;;;;19.77;13.70;;;;;;;11.94;75.60;98701.73;1811247;79;21217;-70
2021/11/29 01:43:13;;;;;;;19.27;12.87;;;;;;;11.99;75.54;98692.79;1812128;79;21232;-70
2021/11/29 01:45:44;;;;;;;19.87;13.67;;;;;;;12.00;75.45;98689.79;1811413;79;21207;-70
2021/11/29 01:48:12;;;;;;;18.77;12.73;;;;;;;12.00;75.29;98680.98;1811799;79;21244;-70
2021/11/29 01:50:43;;;;;;;18.83;13.57;;;;;;;11.93;75.18;98674.19;1812229;78;21208;-70
2021/11/29 01:53:11;;;;;;;17.75;12.35;;;;;;;11.91;75.21;98676.41;1812295;79;21146;-70
2021/11/29 01:55:40;;;;;;;18.30;12.00;;;;;;;11.91;75.24;98674.27;1812138;78;21435;-70
2021/11/29 01:58:07;;;;;;;15.37;11.43;;;;;;;11.90;75.25;98672.69;1812377;79;21204;-70
2021/11/29 02:00:38;;;;;;;18.47;12.90;;;;;;;11.87;75.24;98674.66;1811323;78;21669;-70
2021/11/29 02:03:05;;;;;;;17.00;11.65;;;;;;;11.85;75.24;98668.29;1809832;79;21229;-69
2021/11/29 02:05:31;;;;;;;19.83;12.73;;;;;;;11.83;75.25;98664.31;1804631;79;20924;-70
2021/11/29 02:07:59;;;;;;;17.43;11.10;;;;;;;11.83;75.26;98663.76;1804841;79;21901;-70
2021/11/29 02:10:26;;;;;;;16.80;11.87;;;;;;;11.82;75.28;98659.52;1804674;79;21701;-70
2021/11/29 02:12:53;;;;;;;17.57;12.63;;;;;;;11.81;75.31;98658.47;1804404;79;21211;-70
2021/11/29 02:15:20;;;;;;;16.47;11.67;;;;;;;11.83;75.34;98656.29;1804450;79;21990;-70
2021/11/29 02:17:47;;;;;;;17.73;12.53;;;;;;;11.79;75.26;98639.29;1804373;79;21276;-70
2021/11/29 02:20:15;;;;;;;16.73;11.93;;;;;;;11.75;75.29;98645.81;1804729;79;21396;-70
2021/11/29 02:22:44;;;;;;;15.07;10.77;;;;;;;11.76;75.35;98637.23;1804459;79;21281;-70
2021/11/29 02:25:15;;;;;;;14.90;11.10;;;;;;;11.75;75.37;98644.48;1804524;79;21301;-70
2021/11/29 02:27:43;;;;;;;;;;;;;;;11.72;75.39;98640.53;1807488;79;21138;-70
2021/11/29 02:30:11;;;;;;;16.30;11.60;;;;;;;11.69;75.43;98635.02;1804750;79;20130;-70
2021/11/29 02:32:38;;;;;;;15.40;11.40;;;;;;;11.65;75.52;98637.53;1804396;79;21149;-70
2021/11/29 02:35:06;;;;;;;15.23;10.53;;;;;;;11.67;75.61;98633.20;1804508;79;21066;-70
2021/11/29 02:37:34;;;;;;;16.33;11.17;;;;;;;11.76;75.54;98626.54;1804591;79;21085;-70
2021/11/29 02:40:00;;;;;;;14.37;10.23;;;;;;;11.78;75.42;98635.84;1804497;79;21792;-70
2021/11/29 02:42:28;;;;;;;12.90;9.17;;;;;;;11.80;75.40;98629.61;1804415;79;21808;-70
2021/11/29 02:44:54;;;;;;;13.35;9.70;;;;;;;11.83;75.35;98626.86;1804408;79;21248;-69
2021/11/29 02:47:21;;;;;;;13.67;9.77;;;;;;;11.81;75.27;98615.67;1804756;79;21064;-70
2021/11/29 02:49:48;;;;;;;14.55;10.18;;;;;;;11.79;75.29;98617.34;1804554;79;21926;-69
2021/11/29 02:52:16;;;;;;;12.90;9.80;;;;;;;11.77;75.28;98622.76;1804565;79;21820;-70
2021/11/29 02:54:44;;;;;;;14.50;10.73;;;;;;;11.74;75.31;98614.25;1804346;79;21658;-69
2021/11/29 02:57:16;;;;;;;11.03;8.43;;;;;;;11.73;75.31;98599.86;1804638;79;21757;-70
2021/11/29 02:59:43;;;;;;;12.93;9.75;;;;;;;11.69;75.38;98597.03;1807060;79;21228;-69
2021/11/29 03:02:13;;;;;;;12.93;9.70;;;;;;;11.68;75.46;98594.65;1812229;79;21498;-69
2021/11/29 03:04:40;;;;;;;13.73;9.63;;;;;;;11.65;75.50;98585.94;1811327;79;21985;-69
2021/11/29 03:07:07;;;;;;;11.27;8.80;;;;;;;11.63;75.56;98579.55;1812121;79;21284;-70
2021/11/29 03:09:34;;;;;;;11.43;8.60;;;;;;;11.62;75.61;98571.30;1811774;78;21261;-70
2021/11/29 03:12:04;;;;;;;13.17;10.23;;;;;;;11.60;75.62;98570.81;1806743;79;21276;-70
2021/11/29 03:14:32;;;;;;;14.00;9.70;;;;;;;11.60;75.66;98562.01;1812086;79;21297;-70
2021/11/29 03:16:59;;;;;;;10.40;8.30;;;;;;;11.63;75.64;98564.06;1811536;79;21099;-69
2021/11/29 03:19:34;;;;;;;12.70;9.77;;;;;;;11.64;75.58;98553.04;1812122;79;21287;-70
2021/11/29 03:22:02;;;;;;;11.70;8.80;;;;;;;11.63;75.55;98564.06;1811437;79;21260;-70
2021/11/29 03:24:29;;;;;;;12.37;8.57;;;;;;;11.53;75.78;98553.11;1812308;79;21146;-70
2021/11/29 03:26:56;;;;;;;12.80;9.63;;;;;;;11.55;75.80;98555.45;1812203;79;21153;-69
2021/11/29 03:29:22;;;;;;;11.10;8.23;;;;;;;11.56;75.75;98547.14;1812161;79;21104;-70
2021/11/29 03:31:52;;;;;;;11.27;8.53;;;;;;;11.57;75.77;98541.23;1780758;79;20971;-69
2021/11/29 03:34:18;;;;;;;11.28;8.83;;;;;;;11.59;75.77;98536.38;1812555;79;21115;-70
2021/11/29 03:36:46;;;;;;;12.55;9.58;;;;;;;11.59;75.77;98539.84;1812422;79;21030;-70
2021/11/29 03:39:20;;;;;;;12.23;8.53;;;;;;;11.62;75.72;98533.86;1812402;79;21012;-70
2021/11/29 03:41:48;;;;;;;11.30;9.17;;;;;;;11.60;75.75;98533.94;1812428;79;21570;-70
2021/11/29 03:44:14;;;;;;;12.83;9.50;;;;;;;11.60;75.76;98531.26;1812284;79;21741;-70
2021/11/29 03:46:43;;;;;;;11.60;9.03;;;;;;;11.62;75.77;98527.73;1812373;79;21198;-70
2021/11/29 03:49:10;;;;;;;13.20;9.53;;;;;;;11.63;75.71;98517.27;1812226;79;21115;-70
2021/11/29 03:51:37;;;;;;;11.67;9.43;;;;;;;11.61;75.68;98518.90;1812504;79;21165;-70
2021/11/29 03:54:03;;;;;;;13.80;9.07;;;;;;;11.61;75.71;98514.11;1812198;79;21220;-70
2021/11/29 03:56:30;;;;;;;12.73;10.30;;;;;;;11.62;75.71;98515.70;1811026;79;21175;-70
2021/11/29 03:58:58;;;;;;;12.60;10.67;;;;;;;11.64;75.75;98509.47;1810663;78;21890;-70
2021/11/29 04:01:24;;;;;;;11.60;9.03;;;;;;;11.64;75.64;98502.23;1780498;80;21267;-70
2021/11/29 04:03:52;;;;;;;10.30;8.23;;;;;;;11.66;75.66;98501.94;1780279;80;21382;-70
2021/11/29 04:06:19;;;;;;;12.17;9.60;;;;;;;11.68;75.65;98491.69;1806145;79;21502;-70
2021/11/29 04:08:46;;;;;;;11.30;9.27;;;;;;;11.66;75.56;98490.68;1812217;79;21888;-70
2021/11/29 04:11:14;;;;;;;10.73;8.10;;;;;;;11.64;75.57;98486.19;1812335;79;21291;-70
2021/11/29 04:13:42;;;;;;;12.93;10.17;;;;;;;11.63;75.58;98482.50;1811959;79;21174;-70
2021/11/29 04:16:09;;;;;;;12.20;9.53;;;;;;;11.62;75.62;98484.95;1812319;79;21278;-70
2021/11/29 04:18:36;;;;;;;12.20;9.70;;;;;;;11.63;75.65;98467.24;1812323;79;21266;-70
2021/11/29 04:21:04;;;;;;;12.07;10.17;;;;;;;11.66;75.62;98463.16;1812182;79;21569;-70
2021/11/29 04:23:32;;;;;;;10.70;8.83;;;;;;;11.64;75.53;98453.31;1811312;79;21657;-70
2021/11/29 04:26:01;;;;;;;13.07;10.40;;;;;;;11.63;75.48;98457.88;1812191;79;21529;-70
2021/11/29 04:28:29;;;;;;;15.23;10.50;;;;;;;11.64;75.49;98456.77;1812293;79;21119;-70
2021/11/29 04:30:57;;;;;;;12.63;10.67;;;;;;;11.56;75.56;98454.12;1812105;78;21196;-70
2021/11/29 04:33:24;;;;;;;12.07;9.47;;;;;;;11.47;75.88;98461.57;1812324;78;21899;-70
2021/11/29 04:35:51;;;;;;;13.95;11.10;;;;;;;11.47;75.98;98462.13;1812380;79;21295;-70
2021/11/29 04:38:18;;;;;;;13.78;11.22;;;;;;;11.50;75.98;98461.50;1812294;79;21031;-70
2021/11/29 04:40:45;;;;;;;14.13;11.57;;;;;;;11.55;75.93;98460.55;1812401;78;21506;-70
2021/11/29 04:43:11;;;;;;;13.33;10.83;;;;;;;11.59;75.95;98451.59;1812640;79;21520;-70
2021/11/29 04:45:38;;;;;;;13.57;10.97;;;;;;;11.60;75.97;98455.05;1812303;79;21105;-70
2021/11/29 04:48:05;;;;;;;12.50;10.97;;;;;;;11.64;75.88;98453.31;1812405;79;21051;-71
2021/11/29 04:50:32;;;;;;;12.53;9.90;;;;;;;11.65;75.77;98450.90;1812323;79;21133;-71
2021/11/29 04:52:59;;;;;;;15.28;11.90;;;;;;;11.74;75.52;98450.32;1812527;79;21176;-71
2021/11/29 04:55:26;;;;;;;14.70;11.20;;;;;;;11.78;75.26;98448.61;1812305;79;21791;-71
2021/11/29 04:57:54;;;;;;;14.97;11.27;;;;;;;11.81;74.93;98434.58;1811922;79;21196;-70
2021/11/29 05:00:21;;;;;;;12.03;10.63;;;;;;;11.90;74.47;98432.71;1812184;79;21214;-70
2021/11/29 05:02:48;;;;;;;13.77;11.20;;;;;;;11.71;74.76;98437.58;1812156;79;21070;-70
2021/11/29 05:05:16;;;;;;;14.57;10.90;;;;;;;11.64;74.93;98441.28;1812448;79;21777;-71
2021/11/29 05:07:44;;;;;;;13.57;10.53;;;;;;;11.61;75.04;98437.90;1812123;79;21529;-70
2021/11/29 05:10:11;;;;;;;15.13;11.80;;;;;;;11.62;75.14;98430.14;1812024;79;21519;-70
2021/11/29 05:12:39;;;;;;;14.40;11.97;;;;;;;11.63;75.19;98425.80;1812127;79;21101;-71
2021/11/29 05:15:07;;;;;;;14.40;11.70;;;;;;;11.66;75.17;98429.17;1812303;79;21297;-71
2021/11/29 05:17:35;;;;;;;15.00;11.83;;;;;;;11.65;75.14;98417.48;1812179;79;21209;-71
2021/11/29 05:20:03;;;;;;;14.57;11.93;;;;;;;11.66;75.11;98415.02;1812364;79;21288;-71
2021/11/29 05:22:30;;;;;;;15.97;12.40;;;;;;;11.69;75.08;98422.42;1812039;79;21258;-70
2021/11/29 05:24:56;;;;;;;12.93;10.87;;;;;;;11.71;75.10;98421.53;1812359;79;21145;-70
2021/11/29 05:27:23;;;;;;;14.13;12.10;;;;;;;11.71;75.12;98416.19;1811940;79;21188;-71
2021/11/29 05:29:50;;;;;;;15.73;12.60;;;;;;;11.72;75.09;98414.55;1812691;79;21257;-70
2021/11/29 05:32:18;;;;;;;14.73;12.03;;;;;;;11.76;75.12;98422.72;1812312;79;21943;-71
2021/11/29 05:34:45;;;;;;;14.73;11.70;;;;;;;11.82;74.95;98426.81;1812433;79;21105;-70
2021/11/29 05:37:12;;;;;;;14.27;11.60;;;;;;;11.86;74.90;98422.42;1812064;79;21312;-70
2021/11/29 05:39:38;;;;;;;16.23;12.23;;;;;;;11.91;74.74;98420.92;1811505;79;21328;-70
2021/11/29 05:42:05;;;;;;;15.60;12.50;;;;;;;11.92;74.65;98419.81;1812182;79;21245;-71
2021/11/29 05:44:32;;;;;;;16.53;12.83;;;;;;;11.93;74.59;98435.31;1812330;78;21253;-70
2021/11/29 05:46:59;;;;;;;16.80;12.90;;;;;;;11.97;74.50;98426.88;1811793;79;21322;-71
2021/11/29 05:49:25;;;;;;;14.10;11.60;;;;;;;11.97;74.36;98419.63;1812459;78;21286;-70
2021/11/29 05:51:55;;;;;;;16.27;12.30;;;;;;;12.01;74.27;98417.13;1812050;78;21126;-70
2021/11/29 05:54:22;;;;;;;15.77;12.40;;;;;;;12.02;74.09;98407.21;1812389;79;21260;-70
2021/11/29 05:56:49;;;;;;;16.20;12.77;;;;;;;12.00;73.99;98406.73;1812245;79;21172;-70
2021/11/29 05:59:18;;;;;;;15.37;12.23;;;;;;;12.01;73.92;98408.30;1812356;79;21213;-70
2021/11/29 06:01:44;;;;;;;14.87;12.50;;;;;;;12.01;73.88;98414.45;1812253;79;20983;-70
2021/11/29 06:04:11;;;;;;;17.87;13.23;;;;;;;12.03;73.85;98402.86;1812324;79;21716;-70
2021/11/29 06:06:39;;;;;;;17.90;12.23;;;;;;;12.06;73.75;98406.24;1812370;79;21183;-70
2021/11/29 06:09:06;;;;;;;16.77;13.77;;;;;;;12.05;73.61;98407.91;1811884;79;21200;-71
2021/11/29 06:11:34;;;;;;;17.07;13.43;;;;;;;12.06;73.58;98406.80;1812175;79;21280;-70
2021/11/29 06:14:00;;;;;;;15.03;12.30;;;;;;;12.08;73.50;98400.59;1812217;79;21826;-71
2021/11/29 06:16:29;;;;;;;16.57;13.37;;;;;;;12.11;73.44;98401.27;1812407;79;21182;-70
2021/11/29 06:18:56;;;;;;;17.53;14.47;;;;;;;12.12;73.32;98404.97;1812232;79;21227;-70
2021/11/29 06:21:23;;;;;;;16.60;13.83;;;;;;;12.13;73.23;98413.22;1812223;79;21152;-70
2021/11/29 06:23:50;;;;;;;18.03;14.23;;;;;;;12.14;73.16;98405.98;1812130;79;21303;-70
2021/11/29 06:26:20;;;;;;;19.30;14.57;;;;;;;12.10;72.97;98406.39;1812257;79;21674;-70
2021/11/29 06:28:47;;;;;;;18.60;14.43;;;;;;;12.09;73.04;98411.52;1812059;79;21233;-70
2021/11/29 06:31:14;;;;;;;16.77;14.10;;;;;;;12.10;73.05;98409.84;1812123;79;21275;-70
2021/11/29 06:33:41;;;;;;;17.47;14.13;;;;;;;12.15;73.01;98408.91;1812025;79;21812;-69
2021/11/29 06:36:08;;;;;;;18.03;14.47;;;;;;;12.19;72.90;98408.49;1812429;78;21663;-70
2021/11/29 06:38:34;;;;;;;18.07;14.20;;;;;;;12.22;72.80;98393.14;1810924;79;21112;-69
2021/11/29 06:41:03;;;;;;;16.50;12.93;;;;;;;12.34;72.48;98383.89;1811063;79;21330;-71
2021/11/29 06:43:30;;;;;;;18.00;14.17;;;;;;;12.38;72.34;98382.12;1805264;79;21352;-70
2021/11/29 06:45:57;;;;;;;18.73;14.87;;;;;;;12.39;72.22;98369.52;1804687;79;21369;-70
2021/11/29 06:48:24;;;;;;;17.43;14.13;;;;;;;12.41;72.10;98373.45;1811557;79;21347;-72
2021/11/29 06:50:52;;;;;;;21.77;15.43;;;;;;;12.40;72.10;98354.49;1812725;79;21121;-70
2021/11/29 06:53:19;;;;;;;15.90;13.80;;;;;;;12.44;72.13;98356.75;1811815;78;20976;-70
2021/11/29 06:55:47;;;;;;;17.97;14.23;;;;;;;12.48;71.96;98347.52;1812138;79;21301;-70
2021/11/29 06:58:16;;;;;;;17.27;15.00;;;;;;;12.48;71.85;98336.81;1811885;79;22613;-71
2021/11/29 07:00:45;;;;;;;20.53;15.33;;;;;;;12.46;71.78;98330.20;1812350;79;21212;-70
2021/11/29 07:03:11;;;;;;;17.90;13.93;;;;;;;12.44;71.80;98327.86;1811389;79;21306;-70
2021/11/29 07:05:38;;;;;;;17.07;14.33;;;;;;;12.42;71.86;98320.13;1812261;78;20999;-70
2021/11/29 07:08:05;;;;;;;18.80;14.60;;;;;;;12.46;71.90;98312.80;1812172;78;21170;-70
2021/11/29 07:10:32;;;;;;;17.07;14.37;;;;;;;12.51;71.95;98308.05;1811693;78;21969;-69
2021/11/29 07:13:00;;;;;;;16.17;13.47;;;;;;;12.58;71.91;98300.84;1812054;79;21133;-70
2021/11/29 07:15:27;;;;;;;16.77;14.33;;;;;;;12.59;71.84;98291.13;1812140;78;21168;-70
2021/11/29 07:17:53;;;;;;;17.73;14.23;;;;;;;12.59;71.86;98289.78;1811454;79;21137;-70
2021/11/29 07:20:20;;;;;;;16.70;13.97;;;;;;;12.65;71.90;98293.06;1807565;79;21102;-70
2021/11/29 07:22:48;;;;;;;19.07;14.50;;;;;;;12.74;71.92;98289.00;1804123;79;21153;-70
2021/11/29 07:25:15;;;;;;;26.17;15.10;;;;;;;12.83;71.84;98286.48;1804632;79;21086;-70
2021/11/29 07:27:42;;;;;;;16.87;12.93;;;;;;;12.87;71.70;98286.61;1803992;79;21396;-70
2021/11/29 07:30:11;;;;;;;16.97;13.47;;;;;;;12.94;71.61;98277.48;1804483;79;21122;-70
2021/11/29 07:32:39;;;;;;;15.57;13.90;;;;;;;13.00;71.50;98281.55;1804465;79;21314;-71
2021/11/29 07:35:07;;;;;;;14.20;12.57;;;;;;;13.05;71.41;98282.66;1804532;79;21857;-70
2021/11/29 07:37:34;;;;;;;15.23;12.07;;;;;;;13.09;71.25;98280.89;1804310;79;21240;-70
2021/11/29 07:40:03;;;;;;;16.13;12.57;;;;;;;13.12;71.16;98268.73;1804180;79;21291;-70
2021/11/29 07:42:30;;;;;;;13.70;11.67;;;;;;;13.15;70.99;98252.00;1810712;79;21311;-70
2021/11/29 07:44:57;;;;;;;15.33;12.67;;;;;;;13.16;70.77;98257.58;1806040;79;21325;-70
2021/11/29 07:47:24;;;;;;;16.30;13.33;;;;;;;13.12;70.80;98261.47;1804066;79;21147;-70
2021/11/29 07:49:52;;;;;;;14.77;11.87;;;;;;;13.13;70.81;98255.02;1803719;79;21274;-70
2021/11/29 07:52:19;;;;;;;16.30;12.43;;;;;;;13.12;70.87;98249.97;1806011;79;21268;-70
2021/11/29 07:54:47;;;;;;;18.30;13.47;;;;;;;13.12;70.89;98254.77;1812055;79;21219;-69
2021/11/29 07:57:16;;;;;;;18.43;12.93;;;;;;;13.11;70.93;98251.09;1812397;79;21333;-70
2021/11/29 07:59:45;;;;;;;15.23;12.10;;;;;;;13.12;71.03;98244.61;1812133;79;21261;-70
2021/11/29 08:02:12;;;;;;;16.37;12.50;;;;;;;13.15;71.05;98242.61;1811559;79;21188;-71
2021/11/29 08:04:39;;;;;;;17.30;12.63;;;;;;;13.17;71.04;98240.40;1812144;78;21249;-70
2021/11/29 08:07:06;;;;;;;16.57;11.93;;;;;;;13.17;71.08;98243.08;1811332;79;21258;-70
2021/11/29 08:09:32;;;;;;;15.33;12.80;;;;;;;13.19;71.11;98234.69;1812080;78;22465;-71
2021/11/29 08:12:00;;;;;;;14.87;11.60;;;;;;;13.20;71.20;98222.31;1812308;79;21984;-70
2021/11/29 08:14:27;;;;;;;15.87;12.17;;;;;;;13.23;71.31;98210.94;1811964;78;21210;-69
2021/11/29 08:16:53;;;;;;;17.30;13.20;;;;;;;13.24;71.30;98201.80;1812448;79;21307;-69
2021/11/29 08:19:20;;;;;;;16.43;12.30;;;;;;;13.29;71.34;98202.13;1812276;79;21070;-70
2021/11/29 08:21:47;;;;;;;19.07;13.33;;;;;;;13.34;71.29;98196.01;1812333;79;21295;-69
2021/11/29 08:24:13;;;;;;;13.97;10.77;;;;;;;13.40;71.25;98194.47;1812272;78;21754;-70
2021/11/29 08:26:40;;;;;;;15.57;12.70;;;;;;;13.42;71.19;98178.24;1812092;79;21203;-71
2021/11/29 08:29:07;;;;;;;17.30;12.53;;;;;;;13.37;71.17;98161.83;1812277;79;21771;-70
2021/11/29 08:31:33;;;;;;;18.10;12.33;;;;;;;13.36;71.32;98169.66;1812745;79;21175;-69
2021/11/29 08:34:00;;;;;;;16.53;12.83;;;;;;;13.39;71.45;98170.87;1812109;79;21206;-69
2021/11/29 08:36:26;;;;;;;18.30;13.10;;;;;;;13.45;71.46;98168.76;1812598;79;21309;-69
2021/11/29 08:38:54;;;;;;;13.57;11.17;;;;;;;13.48;71.44;98162.73;1811989;79;21290;-71
2021/11/29 08:41:21;;;;;;;17.80;13.47;;;;;;;13.51;71.44;98149.43;1812408;78;21217;-70
2021/11/29 08:43:49;;;;;;;19.00;13.80;;;;;;;13.52;71.46;98138.95;1812095;79;21236;-71
2021/11/29 08:46:17;;;;;;;18.67;13.80;;;;;;;13.53;71.47;98143.19;1812248;78;21293;-70
2021/11/29 08:48:45;;;;;;;16.37;12.70;;;;;;;13.56;71.53;98126.98;1812196;79;21269;-71
2021/11/29 08:51:11;;;;;;;18.13;13.17;;;;;;;13.54;71.59;98113.90;1812551;78;21232;-71
2021/11/29 08:53:39;;;;;;;17.97;13.43;;;;;;;13.56;71.62;98116.27;1812218;79;21261;-71
2021/11/29 08:56:06;;;;;;;15.27;11.57;;;;;;;13.56;71.72;98112.23;1812554;79;21173;-70
2021/11/29 08:58:32;;;;;;;17.03;11.80;;;;;;;13.59;71.74;98106.98;1811912;79;21600;-70
2021/11/29 09:00:59;;;;;;;15.93;12.30;;;;;;;13.55;71.77;98095.91;1812222;79;21961;-71
2021/11/29 09:03:26;;;;;;;15.70;12.20;;;;;;;13.54;71.84;98083.62;1812090;79;21255;-70
2021/11/29 09:05:53;;;;;;;19.30;12.87;;;;;;;13.54;71.90;98078.26;1811138;79;21332;-70
2021/11/29 09:08:19;;;;;;;17.43;13.50;;;;;;;13.55;71.94;98069.09;1809932;79;21327;-69
2021/11/29 09:10:50;;;;;;;17.17;13.10;;;;;;;13.57;71.95;98062.84;1804647;79;21220;-71
2021/11/29 09:13:17;;;;;;;16.93;12.67;;;;;;;13.53;72.10;98052.00;1804480;79;21551;-71
2021/11/29 09:15:45;;;;;;;17.80;13.57;;;;;;;13.55;72.27;98052.43;1804215;79;21750;-71
2021/11/29 09:18:13;;;;;;;18.00;14.23;;;;;;;13.58;72.40;98044.27;1804875;79;21243;-70
2021/11/29 09:20:41;;;;;;;17.50;13.93;;;;;;;13.70;72.21;98036.78;1804915;79;21165;-71
2021/11/29 09:23:11;;;;;;;18.97;13.13;;;;;;;13.74;72.18;98030.95;1804277;79;21213;-70
2021/11/29 09:25:42;;;;;;;16.17;12.37;;;;;;;13.80;72.12;98024.23;1804673;79;21341;-71
2021/11/29 09:28:10;;;;;;;19.57;12.87;;;;;;;13.86;72.05;98026.13;1804341;79;21265;-71
2021/11/29 09:30:38;;;;;;;16.60;13.30;;;;;;;13.85;72.00;98015.92;1804745;79;21335;-70
2021/11/29 09:33:05;;;;;;;17.20;13.77;;;;;;;13.86;72.04;98007.34;1804582;79;21349;-71
2021/11/29 09:35:32;;;;;;;18.63;14.33;;;;;;;13.90;72.01;98000.94;1804712;79;21152;-71
2021/11/29 09:37:59;;;;;;;17.37;13.27;;;;;;;13.95;71.89;98002.59;1804505;79;21226;-70
2021/11/29 09:40:36;;;;;;;18.37;14.20;;;;;;;13.98;71.77;98000.00;1804706;79;21751;-70
2021/11/29 09:43:02;;;;;;;17.70;13.50;;;;;;;13.98;71.70;97986.58;1803350;79;21294;-71
2021/11/29 09:45:30;;;;;;;16.47;13.37;;;;;;;13.99;71.54;97983.36;1804808;79;21337;-70
2021/11/29 09:47:57;;;;;;;19.03;13.67;;;;;;;14.10;71.02;97955.46;1804752;79;21286;-71
2021/11/29 09:50:25;;;;;;;13.77;11.17;;;;;;;14.10;71.02;97955.46;1790941;79;21223;-69
2021/11/29 09:52:53;;;;;;;16.37;12.77;;;;;;;14.13;71.24;97935.98;1780078;79;21244;-70
2021/11/29 09:55:23;;;;;;;16.23;12.60;;;;;;;14.13;71.15;97926.59;1791904;80;21853;-72
2021/11/29 09:57:51;;;;;;;15.17;11.73;;;;;;;14.19;71.15;97926.56;1791386;80;21270;-71
2021/11/29 10:00:25;;;;;;;15.30;12.40;;;;;;;14.22;71.03;97917.81;1791988;80;21338;-71
2021/11/29 10:02:52;;;;;;;16.13;12.37;;;;;;;14.21;70.92;97911.64;1791110;79;21261;-71
2021/11/29 10:05:20;;;;;;;15.30;11.80;;;;;;;14.25;70.93;97907.17;1791469;80;21325;-71
2021/11/29 10:07:49;;;;;;;16.63;11.03;;;;;;;14.27;71.00;97911.61;1791633;80;21796;-70
2021/11/29 10:10:29;;;;;;;16.53;12.57;;;;;;;14.27;71.00;97911.61;1791552;79;21783;-70
2021/11/29 10:13:03;;;;;;;15.65;12.00;;;;;;;14.25;70.84;97908.51;1791711;79;21421;-69
2021/11/29 10:15:34;;;;;;;16.37;12.23;;;;;;;14.38;70.62;97925.86;1791950;80;21139;-69
2021/11/29 10:18:24;;;;;;;18.77;13.08;;;;;;;14.38;70.62;97925.86;1791534;79;21356;-70
2021/11/29 10:21:07;;;;;;;16.77;13.00;;;;;;;14.42;70.41;97925.41;1790773;80;20950;-70
2021/11/29 10:23:47;;;;;;;15.27;11.33;;;;;;;14.43;70.21;97913.53;1791545;79;21463;-70
2021/11/29 10:26:25;;;;;;;15.43;11.80;;;;;;;14.44;70.06;97893.59;1791641;80;21471;-71
2021/11/29 10:29:02;;;;;;;15.13;11.63;;;;;;;14.40;69.88;97889.48;1791339;79;21881;-71
2021/11/29 10:31:37;;;;;;;18.50;12.97;;;;;;;14.33;69.84;97893.34;1791704;80;21916;-70
2021/11/29 10:34:27;;;;;;;16.53;12.30;;;;;;;14.25;69.86;97876.86;1791191;80;21357;-70
2021/11/29 10:37:00;;;;;;;;;;;;;;;14.22;69.95;97868.16;1794168;80;21579;-70
2021/11/29 10:39:33;;;;;;;14.10;11.95;;;;;;;14.19;70.00;97866.94;1774602;80;20160;-70
2021/11/29 10:42:02;;;;;;;16.90;13.10;;;;;;;14.12;70.18;97863.30;1791567;80;20982;-73
2021/11/29 10:44:39;;;;;;;17.33;13.03;;;;;;;14.07;70.44;97867.78;1794241;78;22009;-71
2021/11/29 10:47:10;;;;;;;15.90;11.37;;;;;;;14.12;70.37;97861.39;1810883;79;21363;-69
2021/11/29 10:49:42;;;;;;;16.50;12.37;;;;;;;14.13;70.49;97856.80;1806548;79;21873;-70
2021/11/29 10:52:11;;;;;;;15.17;12.13;;;;;;;14.17;70.41;97855.75;1796568;79;21380;-70
2021/11/29 10:54:40;;;;;;;16.07;12.27;;;;;;;14.18;70.53;97848.47;1803245;78;48949;-70
2021/11/29 10:57:14;;;;;;;12.97;10.83;;;;;;;14.17;70.66;97843.67;1801668;78;21468;-70
2021/11/29 10:59:43;;;;;;;15.87;11.83;;;;;;;14.17;70.66;97843.67;1802599;78;21435;-70
2021/11/29 11:02:14;;;;;;;17.00;12.57;;;;;;;14.21;70.60;97829.77;1801848;78;21300;-70
2021/11/29 11:04:47;;;;;;;14.87;11.03;;;;;;;14.23;70.65;97827.52;1801359;78;21352;-70
2021/11/29 11:07:25;;;;;;;;;;;;;;;14.23;70.55;97817.35;1813550;79;21996;-70
2021/11/29 11:09:56;;;;;;;14.43;11.30;;;;;;;14.24;70.58;97819.67;1811613;78;20118;-71
2021/11/29 11:12:26;;;;;;;16.00;10.43;;;;;;;14.29;70.56;97820.77;1811657;79;21316;-70
2021/11/29 11:14:56;;;;;;;23.23;13.00;;;;;;;14.37;70.52;97812.87;1812002;79;20951;-70
2021/11/29 11:17:26;;;;;;;15.47;12.33;;;;;;;14.42;70.39;97812.62;1812387;79;22185;-70
2021/11/29 11:19:59;;;;;;;16.50;11.80;;;;;;;14.45;70.28;97795.81;1810261;79;21869;-69
2021/11/29 11:22:34;;;;;;;19.00;12.70;;;;;;;14.46;69.81;97789.30;1804225;79;21390;-70
2021/11/29 11:25:22;;;;;;;16.50;12.03;;;;;;;14.46;69.81;97789.30;1812365;79;21326;-70
2021/11/29 11:28:09;;;;;;;15.97;11.93;;;;;;;14.63;70.03;97767.44;1811591;79;21259;-70